sensor_id;sensor_type;location;lat;lon;timestamp;temperature;humidity
23540;DHT22;11947;50.810;4.394;2022-12-29T00:02:02;11.40;99.90
23540;DHT22;11947;50.810;4.394;2022-12-29T00:04:28;11.30;99.90
23540;DHT22;11947;50.810;4.394;2022-12-29T00:06:54;11.30;99.90
23540;DHT22;11947;50.810;4.394;2022-12-29T00:09:19;11.20;99.90
23540;DHT22;11947;50.810;4.394;2022-12-29T00:11:45;11.30;99.90
23540;DHT22;11947;50.810;4.394;2022-12-29T00:14:12;11.20;99.90
23540;DHT22;11947;50.810;4.394;2022-12-29T00:16:56;11.20;99.90
23540;DHT22;11947;50.810;4.394;2022-12-29T00:19:22;11.20;99.90
23540;DHT22;11947;50.810;4.394;2022-12-29T00:22:09;11.30;99.90
23540;DHT22;11947;50.810;4.394;2022-12-29T00:24:53;11.30;99.90
23540;DHT22;11947;50.810;4.394;2022-12-29T00:27:34;11.30;99.90
23540;DHT22;11947;50.810;4.394;2022-12-29T00:30:23;11.20;99.90
23540;DHT22;11947;50.810;4.394;2022-12-29T00:33:13;11.30;99.90
23540;DHT22;11947;50.810;4.394;2022-12-29T00:38:37;11.30;99.90
23540;DHT22;11947;50.810;4.394;2022-12-29T00:41:22;11.50;99.90
23540;DHT22;11947;50.810;4.394;2022-12-29T00:44:07;11.30;99.90
23540;DHT22;11947;50.810;4.394;2022-12-29T00:46:40;11.40;99.90
23540;DHT22;11947;50.810;4.394;2022-12-29T00:49:07;11.50;99.90
23540;DHT22;11947;50.810;4.394;2022-12-29T00:51:52;11.50;99.90
23540;DHT22;11947;50.810;4.394;2022-12-29T00:54:19;11.40;99.90
23540;DHT22;11947;50.810;4.394;2022-12-29T00:56:53;11.40;99.90
23540;DHT22;11947;50.810;4.394;2022-12-29T00:59:19;11.60;99.90
23540;DHT22;11947;50.810;4.394;2022-12-29T01:01:46;11.40;99.90
23540;DHT22;11947;50.810;4.394;2022-12-29T01:04:12;11.60;99.90
23540;DHT22;11947;50.810;4.394;2022-12-29T01:06:39;11.60;99.90
23540;DHT22;11947;50.810;4.394;2022-12-29T01:09:06;11.50;99.90
23540;DHT22;11947;50.810;4.394;2022-12-29T01:11:50;11.50;99.90
23540;DHT22;11947;50.810;4.394;2022-12-29T01:14:17;11.40;99.90
23540;DHT22;11947;50.810;4.394;2022-12-29T01:16:43;11.30;99.90
23540;DHT22;11947;50.810;4.394;2022-12-29T01:19:08;11.40;99.90
23540;DHT22;11947;50.810;4.394;2022-12-29T01:21:34;11.20;99.90
23540;DHT22;11947;50.810;4.394;2022-12-29T01:24:00;11.30;99.90
23540;DHT22;11947;50.810;4.394;2022-12-29T01:26:25;11.10;99.90
23540;DHT22;11947;50.810;4.394;2022-12-29T01:28:51;11.10;99.90
23540;DHT22;11947;50.810;4.394;2022-12-29T01:31:17;11.10;99.90
23540;DHT22;11947;50.810;4.394;2022-12-29T01:33:43;11.10;99.90
23540;DHT22;11947;50.810;4.394;2022-12-29T01:36:12;11.20;99.90
23540;DHT22;11947;50.810;4.394;2022-12-29T01:38:39;11.00;99.90
23540;DHT22;11947;50.810;4.394;2022-12-29T01:41:06;11.10;99.90
23540;DHT22;11947;50.810;4.394;2022-12-29T01:43:44;11.10;99.90
23540;DHT22;11947;50.810;4.394;2022-12-29T01:46:20;11.20;99.90
23540;DHT22;11947;50.810;4.394;2022-12-29T01:48:52;10.90;99.90
23540;DHT22;11947;50.810;4.394;2022-12-29T01:51:20;10.90;99.90
23540;DHT22;11947;50.810;4.394;2022-12-29T01:53:46;11.10;99.90
23540;DHT22;11947;50.810;4.394;2022-12-29T01:56:15;11.00;99.90
23540;DHT22;11947;50.810;4.394;2022-12-29T01:58:44;11.20;99.90
23540;DHT22;11947;50.810;4.394;2022-12-29T02:01:11;10.90;99.90
23540;DHT22;11947;50.810;4.394;2022-12-29T02:03:37;10.80;99.90
23540;DHT22;11947;50.810;4.394;2022-12-29T02:06:35;10.80;99.90
23540;DHT22;11947;50.810;4.394;2022-12-29T02:09:02;10.80;99.90
23540;DHT22;11947;50.810;4.394;2022-12-29T02:11:29;10.70;99.90
23540;DHT22;11947;50.810;4.394;2022-12-29T02:13:56;10.80;99.90
23540;DHT22;11947;50.810;4.394;2022-12-29T02:33:24;10.60;99.90
23540;DHT22;11947;50.810;4.394;2022-12-29T02:36:07;10.50;99.90
23540;DHT22;11947;50.810;4.394;2022-12-29T02:39:02;10.50;99.90
23540;DHT22;11947;50.810;4.394;2022-12-29T02:43:59;10.60;99.90
23540;DHT22;11947;50.810;4.394;2022-12-29T02:46:34;10.60;99.90
23540;DHT22;11947;50.810;4.394;2022-12-29T02:49:16;10.50;99.90
23540;DHT22;11947;50.810;4.394;2022-12-29T02:54:18;10.30;99.90
23540;DHT22;11947;50.810;4.394;2022-12-29T02:57:04;10.40;99.90
23540;DHT22;11947;50.810;4.394;2022-12-29T02:59:30;10.40;99.90
23540;DHT22;11947;50.810;4.394;2022-12-29T03:02:29;10.20;99.90
23540;DHT22;11947;50.810;4.394;2022-12-29T03:19:14;10.10;99.90
23540;DHT22;11947;50.810;4.394;2022-12-29T03:21:59;10.10;99.90
23540;DHT22;11947;50.810;4.394;2022-12-29T03:24:47;10.10;99.90
23540;DHT22;11947;50.810;4.394;2022-12-29T03:27:21;10.20;99.90
23540;DHT22;11947;50.810;4.394;2022-12-29T03:29:52;10.10;99.90
23540;DHT22;11947;50.810;4.394;2022-12-29T03:32:26;9.90;99.90
23540;DHT22;11947;50.810;4.394;2022-12-29T03:34:53;9.80;99.90
23540;DHT22;11947;50.810;4.394;2022-12-29T03:37:27;9.70;99.90
23540;DHT22;11947;50.810;4.394;2022-12-29T03:39:55;9.90;99.90
23540;DHT22;11947;50.810;4.394;2022-12-29T03:42:23;9.80;99.90
23540;DHT22;11947;50.810;4.394;2022-12-29T03:44:54;9.90;99.90
23540;DHT22;11947;50.810;4.394;2022-12-29T03:47:20;9.70;99.90
23540;DHT22;11947;50.810;4.394;2022-12-29T03:49:46;9.80;99.90
23540;DHT22;11947;50.810;4.394;2022-12-29T03:52:12;9.90;99.90
23540;DHT22;11947;50.810;4.394;2022-12-29T03:54:38;9.90;99.90
23540;DHT22;11947;50.810;4.394;2022-12-29T03:57:04;10.00;99.90
23540;DHT22;11947;50.810;4.394;2022-12-29T03:59:29;9.80;99.90
23540;DHT22;11947;50.810;4.394;2022-12-29T04:01:55;9.70;99.90
23540;DHT22;11947;50.810;4.394;2022-12-29T04:04:20;9.90;99.90
23540;DHT22;11947;50.810;4.394;2022-12-29T04:06:46;9.70;99.90
23540;DHT22;11947;50.810;4.394;2022-12-29T04:09:12;9.70;99.90
23540;DHT22;11947;50.810;4.394;2022-12-29T04:11:37;9.60;99.90
23540;DHT22;11947;50.810;4.394;2022-12-29T04:14:03;9.50;99.90
23540;DHT22;11947;50.810;4.394;2022-12-29T04:16:28;9.40;99.90
23540;DHT22;11947;50.810;4.394;2022-12-29T04:18:54;9.40;99.90
23540;DHT22;11947;50.810;4.394;2022-12-29T04:21:19;9.40;99.90
23540;DHT22;11947;50.810;4.394;2022-12-29T04:23:45;9.60;99.90
23540;DHT22;11947;50.810;4.394;2022-12-29T04:26:11;9.40;99.90
23540;DHT22;11947;50.810;4.394;2022-12-29T04:28:36;9.50;99.90
23540;DHT22;11947;50.810;4.394;2022-12-29T04:31:03;9.40;99.90
23540;DHT22;11947;50.810;4.394;2022-12-29T04:33:29;9.40;99.90
23540;DHT22;11947;50.810;4.394;2022-12-29T04:35:55;9.50;99.90
23540;DHT22;11947;50.810;4.394;2022-12-29T04:38:22;9.50;99.90
23540;DHT22;11947;50.810;4.394;2022-12-29T04:40:48;9.40;99.90
23540;DHT22;11947;50.810;4.394;2022-12-29T04:43:15;9.40;99.90
23540;DHT22;11947;50.810;4.394;2022-12-29T04:45:47;9.40;99.90
23540;DHT22;11947;50.810;4.394;2022-12-29T04:48:14;9.60;99.90
23540;DHT22;11947;50.810;4.394;2022-12-29T04:50:40;9.50;99.90
23540;DHT22;11947;50.810;4.394;2022-12-29T04:53:07;9.60;99.90
23540;DHT22;11947;50.810;4.394;2022-12-29T04:55:32;9.60;99.90
23540;DHT22;11947;50.810;4.394;2022-12-29T04:57:58;9.80;99.90
23540;DHT22;11947;50.810;4.394;2022-12-29T05:00:24;9.70;99.90
23540;DHT22;11947;50.810;4.394;2022-12-29T05:02:49;9.70;99.90
23540;DHT22;11947;50.810;4.394;2022-12-29T05:05:16;9.70;99.90
23540;DHT22;11947;50.810;4.394;2022-12-29T05:07:41;9.80;99.90
23540;DHT22;11947;50.810;4.394;2022-12-29T05:10:08;9.80;99.90
23540;DHT22;11947;50.810;4.394;2022-12-29T05:12:35;9.90;99.90
23540;DHT22;11947;50.810;4.394;2022-12-29T05:15:01;9.90;99.90
23540;DHT22;11947;50.810;4.394;2022-12-29T05:17:28;9.80;99.90
23540;DHT22;11947;50.810;4.394;2022-12-29T05:19:54;9.90;99.90
23540;DHT22;11947;50.810;4.394;2022-12-29T05:22:20;9.90;99.90
23540;DHT22;11947;50.810;4.394;2022-12-29T05:24:46;10.00;99.90
23540;DHT22;11947;50.810;4.394;2022-12-29T05:27:11;10.00;99.90
23540;DHT22;11947;50.810;4.394;2022-12-29T05:29:37;10.10;99.90
23540;DHT22;11947;50.810;4.394;2022-12-29T05:32:03;9.90;99.90
23540;DHT22;11947;50.810;4.394;2022-12-29T05:34:28;9.90;99.90
23540;DHT22;11947;50.810;4.394;2022-12-29T05:36:54;9.90;99.90
23540;DHT22;11947;50.810;4.394;2022-12-29T05:39:20;9.90;99.90
23540;DHT22;11947;50.810;4.394;2022-12-29T05:41:45;9.90;99.90
23540;DHT22;11947;50.810;4.394;2022-12-29T05:44:11;9.90;99.90
23540;DHT22;11947;50.810;4.394;2022-12-29T05:46:37;9.90;99.90
23540;DHT22;11947;50.810;4.394;2022-12-29T05:49:03;10.00;99.90
23540;DHT22;11947;50.810;4.394;2022-12-29T05:51:29;10.10;99.90
23540;DHT22;11947;50.810;4.394;2022-12-29T05:53:54;10.00;99.90
23540;DHT22;11947;50.810;4.394;2022-12-29T05:56:20;10.00;99.90
23540;DHT22;11947;50.810;4.394;2022-12-29T05:58:45;9.90;99.90
23540;DHT22;11947;50.810;4.394;2022-12-29T06:01:11;10.00;99.90
23540;DHT22;11947;50.810;4.394;2022-12-29T06:03:36;9.90;99.90
23540;DHT22;11947;50.810;4.394;2022-12-29T06:06:02;9.90;99.90
23540;DHT22;11947;50.810;4.394;2022-12-29T06:08:28;10.00;99.90
23540;DHT22;11947;50.810;4.394;2022-12-29T06:10:53;9.90;99.90
23540;DHT22;11947;50.810;4.394;2022-12-29T06:13:19;9.80;99.90
23540;DHT22;11947;50.810;4.394;2022-12-29T06:15:45;9.80;99.90
23540;DHT22;11947;50.810;4.394;2022-12-29T06:18:10;9.90;99.90
23540;DHT22;11947;50.810;4.394;2022-12-29T06:20:36;10.00;99.90
23540;DHT22;11947;50.810;4.394;2022-12-29T06:23:01;9.90;99.90
23540;DHT22;11947;50.810;4.394;2022-12-29T06:25:27;9.90;99.90
23540;DHT22;11947;50.810;4.394;2022-12-29T06:27:53;9.70;99.90
23540;DHT22;11947;50.810;4.394;2022-12-29T06:30:19;10.00;99.90
23540;DHT22;11947;50.810;4.394;2022-12-29T06:32:45;9.80;99.90
23540;DHT22;11947;50.810;4.394;2022-12-29T06:35:11;9.70;99.90
23540;DHT22;11947;50.810;4.394;2022-12-29T06:37:37;9.80;99.90
23540;DHT22;11947;50.810;4.394;2022-12-29T06:40:02;9.90;99.90
23540;DHT22;11947;50.810;4.394;2022-12-29T06:42:28;9.90;99.90
23540;DHT22;11947;50.810;4.394;2022-12-29T06:44:54;10.10;99.90
23540;DHT22;11947;50.810;4.394;2022-12-29T06:47:19;10.00;99.90
23540;DHT22;11947;50.810;4.394;2022-12-29T06:49:45;10.20;99.90
23540;DHT22;11947;50.810;4.394;2022-12-29T06:52:10;10.10;99.90
23540;DHT22;11947;50.810;4.394;2022-12-29T06:54:36;10.30;99.90
23540;DHT22;11947;50.810;4.394;2022-12-29T06:57:02;10.20;99.90
23540;DHT22;11947;50.810;4.394;2022-12-29T06:59:27;10.10;99.90
23540;DHT22;11947;50.810;4.394;2022-12-29T07:01:53;10.10;99.90
23540;DHT22;11947;50.810;4.394;2022-12-29T07:04:19;10.10;99.90
23540;DHT22;11947;50.810;4.394;2022-12-29T07:06:44;10.20;99.90
23540;DHT22;11947;50.810;4.394;2022-12-29T07:09:10;10.30;99.90
23540;DHT22;11947;50.810;4.394;2022-12-29T07:11:36;10.20;99.90
23540;DHT22;11947;50.810;4.394;2022-12-29T07:14:02;10.10;99.90
23540;DHT22;11947;50.810;4.394;2022-12-29T07:16:28;10.00;99.90
23540;DHT22;11947;50.810;4.394;2022-12-29T07:18:56;10.00;99.90
23540;DHT22;11947;50.810;4.394;2022-12-29T07:21:21;10.20;99.90
23540;DHT22;11947;50.810;4.394;2022-12-29T07:23:47;10.10;99.90
23540;DHT22;11947;50.810;4.394;2022-12-29T07:26:14;10.10;99.90
23540;DHT22;11947;50.810;4.394;2022-12-29T07:28:40;10.30;99.90
23540;DHT22;11947;50.810;4.394;2022-12-29T07:31:17;10.30;99.90
23540;DHT22;11947;50.810;4.394;2022-12-29T07:33:44;10.20;99.90
23540;DHT22;11947;50.810;4.394;2022-12-29T07:36:11;10.20;99.90
23540;DHT22;11947;50.810;4.394;2022-12-29T07:38:37;10.20;99.90
23540;DHT22;11947;50.810;4.394;2022-12-29T07:41:03;10.10;99.90
23540;DHT22;11947;50.810;4.394;2022-12-29T07:43:28;10.20;99.90
23540;DHT22;11947;50.810;4.394;2022-12-29T07:45:54;10.10;99.90
23540;DHT22;11947;50.810;4.394;2022-12-29T07:48:20;10.30;99.90
23540;DHT22;11947;50.810;4.394;2022-12-29T07:50:45;10.30;99.90
23540;DHT22;11947;50.810;4.394;2022-12-29T07:53:11;10.30;99.90
23540;DHT22;11947;50.810;4.394;2022-12-29T07:55:36;10.30;99.90
23540;DHT22;11947;50.810;4.394;2022-12-29T07:58:02;10.20;99.90
23540;DHT22;11947;50.810;4.394;2022-12-29T08:00:27;10.30;99.90
23540;DHT22;11947;50.810;4.394;2022-12-29T08:02:53;10.30;99.90
23540;DHT22;11947;50.810;4.394;2022-12-29T08:05:19;10.40;99.90
23540;DHT22;11947;50.810;4.394;2022-12-29T08:07:45;10.40;99.90
23540;DHT22;11947;50.810;4.394;2022-12-29T08:10:12;10.50;99.90
23540;DHT22;11947;50.810;4.394;2022-12-29T08:12:38;10.50;99.90
23540;DHT22;11947;50.810;4.394;2022-12-29T08:15:05;10.40;99.90
23540;DHT22;11947;50.810;4.394;2022-12-29T08:17:31;10.50;99.90
23540;DHT22;11947;50.810;4.394;2022-12-29T08:19:58;10.60;99.90
23540;DHT22;11947;50.810;4.394;2022-12-29T08:22:23;10.50;99.90
23540;DHT22;11947;50.810;4.394;2022-12-29T08:24:49;10.40;99.90
23540;DHT22;11947;50.810;4.394;2022-12-29T08:27:15;10.50;99.90
23540;DHT22;11947;50.810;4.394;2022-12-29T08:29:40;10.80;99.90
23540;DHT22;11947;50.810;4.394;2022-12-29T08:32:06;10.70;99.90
23540;DHT22;11947;50.810;4.394;2022-12-29T08:34:32;10.40;99.90
23540;DHT22;11947;50.810;4.394;2022-12-29T08:36:57;10.40;99.90
23540;DHT22;11947;50.810;4.394;2022-12-29T08:39:23;10.50;99.90
23540;DHT22;11947;50.810;4.394;2022-12-29T08:41:49;10.50;99.90
23540;DHT22;11947;50.810;4.394;2022-12-29T08:44:14;10.40;99.90
23540;DHT22;11947;50.810;4.394;2022-12-29T08:46:40;10.50;99.90
23540;DHT22;11947;50.810;4.394;2022-12-29T08:49:05;10.40;99.90
23540;DHT22;11947;50.810;4.394;2022-12-29T08:51:31;10.40;99.90
23540;DHT22;11947;50.810;4.394;2022-12-29T08:53:57;10.50;99.90
23540;DHT22;11947;50.810;4.394;2022-12-29T08:56:23;10.50;99.90
23540;DHT22;11947;50.810;4.394;2022-12-29T08:58:49;10.50;99.90
23540;DHT22;11947;50.810;4.394;2022-12-29T09:01:15;10.70;99.90
23540;DHT22;11947;50.810;4.394;2022-12-29T09:03:41;10.60;99.90
23540;DHT22;11947;50.810;4.394;2022-12-29T09:06:07;10.80;99.90
23540;DHT22;11947;50.810;4.394;2022-12-29T09:08:32;10.70;99.90
23540;DHT22;11947;50.810;4.394;2022-12-29T09:11:16;10.60;99.90
23540;DHT22;11947;50.810;4.394;2022-12-29T09:13:42;10.50;99.90
23540;DHT22;11947;50.810;4.394;2022-12-29T09:16:11;10.60;99.90
23540;DHT22;11947;50.810;4.394;2022-12-29T09:18:37;10.50;99.90
23540;DHT22;11947;50.810;4.394;2022-12-29T09:21:04;10.70;99.90
23540;DHT22;11947;50.810;4.394;2022-12-29T09:23:30;10.60;99.90
23540;DHT22;11947;50.810;4.394;2022-12-29T09:25:56;10.60;99.90
23540;DHT22;11947;50.810;4.394;2022-12-29T09:28:22;10.50;99.90
23540;DHT22;11947;50.810;4.394;2022-12-29T09:30:49;10.60;99.90
23540;DHT22;11947;50.810;4.394;2022-12-29T09:33:15;10.60;99.90
23540;DHT22;11947;50.810;4.394;2022-12-29T09:35:44;10.60;99.90
23540;DHT22;11947;50.810;4.394;2022-12-29T09:38:11;10.40;99.90
23540;DHT22;11947;50.810;4.394;2022-12-29T09:40:38;10.60;99.90
23540;DHT22;11947;50.810;4.394;2022-12-29T09:48:31;10.80;99.90
23540;DHT22;11947;50.810;4.394;2022-12-29T09:51:02;10.90;99.90
23540;DHT22;11947;50.810;4.394;2022-12-29T09:53:30;10.80;99.90
23540;DHT22;11947;50.810;4.394;2022-12-29T09:55:59;11.00;99.90
23540;DHT22;11947;50.810;4.394;2022-12-29T09:58:36;11.10;99.90
23540;DHT22;11947;50.810;4.394;2022-12-29T10:03:56;11.10;99.90
23540;DHT22;11947;50.810;4.394;2022-12-29T10:06:24;11.00;99.90
23540;DHT22;11947;50.810;4.394;2022-12-29T10:09:19;10.90;99.90
23540;DHT22;11947;50.810;4.394;2022-12-29T10:23:02;11.20;99.90
23540;DHT22;11947;50.810;4.394;2022-12-29T10:25:34;11.10;99.90
23540;DHT22;11947;50.810;4.394;2022-12-29T10:28:15;11.10;99.90
23540;DHT22;11947;50.810;4.394;2022-12-29T10:30:43;11.30;99.90
23540;DHT22;11947;50.810;4.394;2022-12-29T10:33:17;11.40;99.90
23540;DHT22;11947;50.810;4.394;2022-12-29T10:35:43;11.30;99.90
23540;DHT22;11947;50.810;4.394;2022-12-29T10:38:37;11.20;99.90
23540;DHT22;11947;50.810;4.394;2022-12-29T10:41:27;11.20;99.90
23540;DHT22;11947;50.810;4.394;2022-12-29T10:43:56;11.30;99.90
23540;DHT22;11947;50.810;4.394;2022-12-29T10:46:29;11.40;99.90
23540;DHT22;11947;50.810;4.394;2022-12-29T10:48:57;11.30;99.90
23540;DHT22;11947;50.810;4.394;2022-12-29T10:51:27;11.20;99.90
23540;DHT22;11947;50.810;4.394;2022-12-29T10:53:59;11.20;99.90
23540;DHT22;11947;50.810;4.394;2022-12-29T10:56:41;11.40;99.90
23540;DHT22;11947;50.810;4.394;2022-12-29T10:59:27;11.30;99.90
23540;DHT22;11947;50.810;4.394;2022-12-29T11:07:18;11.60;99.90
23540;DHT22;11947;50.810;4.394;2022-12-29T11:09:45;12.00;99.90
23540;DHT22;11947;50.810;4.394;2022-12-29T11:12:27;11.80;99.90
23540;DHT22;11947;50.810;4.394;2022-12-29T11:15:14;11.70;99.90
23540;DHT22;11947;50.810;4.394;2022-12-29T11:17:56;11.80;99.90
23540;DHT22;11947;50.810;4.394;2022-12-29T11:20:35;11.60;99.90
23540;DHT22;11947;50.810;4.394;2022-12-29T11:23:02;11.60;99.90
23540;DHT22;11947;50.810;4.394;2022-12-29T11:25:28;11.70;99.90
23540;DHT22;11947;50.810;4.394;2022-12-29T11:28:15;11.50;99.90
23540;DHT22;11947;50.810;4.394;2022-12-29T11:30:41;11.50;99.90
23540;DHT22;11947;50.810;4.394;2022-12-29T11:33:09;11.40;99.90
23540;DHT22;11947;50.810;4.394;2022-12-29T11:35:57;11.50;99.90
23540;DHT22;11947;50.810;4.394;2022-12-29T11:38:29;11.40;99.90
23540;DHT22;11947;50.810;4.394;2022-12-29T11:40:57;11.30;99.90
23540;DHT22;11947;50.810;4.394;2022-12-29T11:46:01;11.00;99.90
23540;DHT22;11947;50.810;4.394;2022-12-29T11:48:38;11.10;99.90
23540;DHT22;11947;50.810;4.394;2022-12-29T11:51:05;11.20;99.90
23540;DHT22;11947;50.810;4.394;2022-12-29T11:53:50;11.20;99.90
23540;DHT22;11947;50.810;4.394;2022-12-29T11:56:19;11.00;99.90
23540;DHT22;11947;50.810;4.394;2022-12-29T11:58:45;11.00;99.90
23540;DHT22;11947;50.810;4.394;2022-12-29T12:01:34;10.90;99.90
23540;DHT22;11947;50.810;4.394;2022-12-29T12:04:12;11.20;99.90
23540;DHT22;11947;50.810;4.394;2022-12-29T12:06:47;11.10;99.90
23540;DHT22;11947;50.810;4.394;2022-12-29T12:09:23;11.00;99.90
23540;DHT22;11947;50.810;4.394;2022-12-29T12:11:52;10.90;99.90
23540;DHT22;11947;50.810;4.394;2022-12-29T12:14:40;11.00;99.90
23540;DHT22;11947;50.810;4.394;2022-12-29T12:17:23;10.90;99.90
23540;DHT22;11947;50.810;4.394;2022-12-29T12:22:38;11.20;99.90
23540;DHT22;11947;50.810;4.394;2022-12-29T12:25:20;11.20;99.90
23540;DHT22;11947;50.810;4.394;2022-12-29T12:28:20;11.20;99.90
23540;DHT22;11947;50.810;4.394;2022-12-29T12:30:49;10.70;99.90
23540;DHT22;11947;50.810;4.394;2022-12-29T12:33:29;10.70;99.90
23540;DHT22;11947;50.810;4.394;2022-12-29T12:46:57;11.00;99.90
23540;DHT22;11947;50.810;4.394;2022-12-29T12:49:39;10.90;99.90
23540;DHT22;11947;50.810;4.394;2022-12-29T12:52:20;10.90;99.90
23540;DHT22;11947;50.810;4.394;2022-12-29T13:00:15;11.10;99.90
23540;DHT22;11947;50.810;4.394;2022-12-29T13:05:32;11.10;99.90
23540;DHT22;11947;50.810;4.394;2022-12-29T13:13:45;11.10;99.90
23540;DHT22;11947;50.810;4.394;2022-12-29T13:19:12;11.20;99.90
23540;DHT22;11947;50.810;4.394;2022-12-29T13:21:55;11.30;99.90
23540;DHT22;11947;50.810;4.394;2022-12-29T13:27:27;11.00;99.90
23540;DHT22;11947;50.810;4.394;2022-12-29T13:30:12;10.80;99.90
23540;DHT22;11947;50.810;4.394;2022-12-29T13:40:55;11.10;99.90
23540;DHT22;11947;50.810;4.394;2022-12-29T13:43:22;11.20;99.90
23540;DHT22;11947;50.810;4.394;2022-12-29T13:45:59;11.20;99.90
23540;DHT22;11947;50.810;4.394;2022-12-29T13:48:49;11.20;99.90
23540;DHT22;11947;50.810;4.394;2022-12-29T13:51:16;11.20;99.90
23540;DHT22;11947;50.810;4.394;2022-12-29T13:56:42;11.50;99.90
23540;DHT22;11947;50.810;4.394;2022-12-29T13:59:30;11.20;99.90
23540;DHT22;11947;50.810;4.394;2022-12-29T14:02:13;11.30;99.90
23540;DHT22;11947;50.810;4.394;2022-12-29T14:05:02;11.20;99.90
23540;DHT22;11947;50.810;4.394;2022-12-29T14:07:30;11.20;99.90
23540;DHT22;11947;50.810;4.394;2022-12-29T14:10:00;11.00;99.90
23540;DHT22;11947;50.810;4.394;2022-12-29T14:17:34;10.90;99.90
23540;DHT22;11947;50.810;4.394;2022-12-29T14:20:01;11.00;99.90
23540;DHT22;11947;50.810;4.394;2022-12-29T14:22:28;10.90;99.90
23540;DHT22;11947;50.810;4.394;2022-12-29T14:24:54;10.90;99.90
23540;DHT22;11947;50.810;4.394;2022-12-29T14:29:47;11.10;99.90
23540;DHT22;11947;50.810;4.394;2022-12-29T14:34:54;11.10;99.90
23540;DHT22;11947;50.810;4.394;2022-12-29T14:37:27;11.00;99.90
23540;DHT22;11947;50.810;4.394;2022-12-29T14:42:37;10.90;99.90
23540;DHT22;11947;50.810;4.394;2022-12-29T14:47:45;10.70;99.90
23540;DHT22;11947;50.810;4.394;2022-12-29T14:50:17;10.70;99.90
23540;DHT22;11947;50.810;4.394;2022-12-29T14:52:55;10.80;99.90
23540;DHT22;11947;50.810;4.394;2022-12-29T14:55:41;10.90;99.90
23540;DHT22;11947;50.810;4.394;2022-12-29T15:00:46;10.80;99.90
23540;DHT22;11947;50.810;4.394;2022-12-29T15:03:36;10.80;99.90
23540;DHT22;11947;50.810;4.394;2022-12-29T15:06:10;10.70;99.90
23540;DHT22;11947;50.810;4.394;2022-12-29T15:11:42;10.50;99.90
23540;DHT22;11947;50.810;4.394;2022-12-29T15:16:53;10.10;99.90
23540;DHT22;11947;50.810;4.394;2022-12-29T15:19:24;9.90;99.90
23540;DHT22;11947;50.810;4.394;2022-12-29T15:21:50;9.70;99.90
23540;DHT22;11947;50.810;4.394;2022-12-29T15:24:15;9.50;99.90
23540;DHT22;11947;50.810;4.394;2022-12-29T15:26:45;9.40;99.90
23540;DHT22;11947;50.810;4.394;2022-12-29T15:32:01;9.10;99.90
23540;DHT22;11947;50.810;4.394;2022-12-29T15:34:30;9.00;99.90
23540;DHT22;11947;50.810;4.394;2022-12-29T15:36:55;8.80;99.90
23540;DHT22;11947;50.810;4.394;2022-12-29T15:39:29;8.70;99.90
23540;DHT22;11947;50.810;4.394;2022-12-29T15:44:39;8.80;99.90
23540;DHT22;11947;50.810;4.394;2022-12-29T15:47:17;8.50;99.90
23540;DHT22;11947;50.810;4.394;2022-12-29T15:49:44;8.40;99.90
23540;DHT22;11947;50.810;4.394;2022-12-29T15:52:17;8.30;99.90
23540;DHT22;11947;50.810;4.394;2022-12-29T15:54:44;8.40;99.90
23540;DHT22;11947;50.810;4.394;2022-12-29T15:57:26;8.30;99.90
23540;DHT22;11947;50.810;4.394;2022-12-29T15:59:52;8.50;99.90
23540;DHT22;11947;50.810;4.394;2022-12-29T16:02:19;8.40;99.90
23540;DHT22;11947;50.810;4.394;2022-12-29T16:04:48;8.40;99.90
23540;DHT22;11947;50.810;4.394;2022-12-29T16:07:31;8.30;99.90
23540;DHT22;11947;50.810;4.394;2022-12-29T16:10:00;8.30;99.90
23540;DHT22;11947;50.810;4.394;2022-12-29T16:12:35;8.40;99.90
23540;DHT22;11947;50.810;4.394;2022-12-29T16:15:12;8.20;99.90
23540;DHT22;11947;50.810;4.394;2022-12-29T16:17:50;8.00;99.90
23540;DHT22;11947;50.810;4.394;2022-12-29T16:20:22;8.00;99.90
23540;DHT22;11947;50.810;4.394;2022-12-29T16:22:54;8.30;99.90
23540;DHT22;11947;50.810;4.394;2022-12-29T16:25:27;8.10;99.90
23540;DHT22;11947;50.810;4.394;2022-12-29T16:27:54;8.10;99.90
23540;DHT22;11947;50.810;4.394;2022-12-29T16:30:25;8.00;99.90
23540;DHT22;11947;50.810;4.394;2022-12-29T16:32:53;8.00;99.90
23540;DHT22;11947;50.810;4.394;2022-12-29T16:35:24;7.90;99.90
23540;DHT22;11947;50.810;4.394;2022-12-29T16:40:37;8.00;99.90
23540;DHT22;11947;50.810;4.394;2022-12-29T16:43:04;8.00;99.90
23540;DHT22;11947;50.810;4.394;2022-12-29T16:50:41;7.80;99.90
23540;DHT22;11947;50.810;4.394;2022-12-29T16:55:48;7.70;99.90
23540;DHT22;11947;50.810;4.394;2022-12-29T16:58:19;7.90;99.90
23540;DHT22;11947;50.810;4.394;2022-12-29T17:00:46;7.80;99.90
23540;DHT22;11947;50.810;4.394;2022-12-29T17:03:13;7.70;99.90
23540;DHT22;11947;50.810;4.394;2022-12-29T17:05:39;7.70;99.90
23540;DHT22;11947;50.810;4.394;2022-12-29T17:08:17;7.60;99.90
23540;DHT22;11947;50.810;4.394;2022-12-29T17:10:51;7.60;99.90
23540;DHT22;11947;50.810;4.394;2022-12-29T17:13:36;7.70;99.90
23540;DHT22;11947;50.810;4.394;2022-12-29T17:16:03;7.70;99.90
23540;DHT22;11947;50.810;4.394;2022-12-29T17:18:29;7.70;99.90
23540;DHT22;11947;50.810;4.394;2022-12-29T17:20:54;7.80;99.90
23540;DHT22;11947;50.810;4.394;2022-12-29T17:23:20;7.80;99.90
23540;DHT22;11947;50.810;4.394;2022-12-29T17:25:45;8.00;99.90
23540;DHT22;11947;50.810;4.394;2022-12-29T17:28:21;8.10;99.90
23540;DHT22;11947;50.810;4.394;2022-12-29T17:30:48;8.00;99.90
23540;DHT22;11947;50.810;4.394;2022-12-29T17:33:16;7.80;99.90
23540;DHT22;11947;50.810;4.394;2022-12-29T17:35:43;8.00;99.90
23540;DHT22;11947;50.810;4.394;2022-12-29T17:38:25;7.80;99.90
23540;DHT22;11947;50.810;4.394;2022-12-29T17:40:52;7.80;99.90
23540;DHT22;11947;50.810;4.394;2022-12-29T17:43:18;7.70;99.90
23540;DHT22;11947;50.810;4.394;2022-12-29T17:45:46;7.70;99.90
23540;DHT22;11947;50.810;4.394;2022-12-29T17:48:19;7.90;99.90
23540;DHT22;11947;50.810;4.394;2022-12-29T17:50:48;7.90;99.90
23540;DHT22;11947;50.810;4.394;2022-12-29T17:53:16;7.70;99.90
23540;DHT22;11947;50.810;4.394;2022-12-29T17:55:43;7.60;99.90
23540;DHT22;11947;50.810;4.394;2022-12-29T17:58:18;7.70;99.90
23540;DHT22;11947;50.810;4.394;2022-12-29T18:00:46;7.90;99.90
23540;DHT22;11947;50.810;4.394;2022-12-29T18:03:17;7.70;99.90
23540;DHT22;11947;50.810;4.394;2022-12-29T18:05:44;7.70;99.90
23540;DHT22;11947;50.810;4.394;2022-12-29T18:08:10;7.60;99.90
23540;DHT22;11947;50.810;4.394;2022-12-29T18:10:38;7.50;99.90
23540;DHT22;11947;50.810;4.394;2022-12-29T18:13:04;7.60;99.90
23540;DHT22;11947;50.810;4.394;2022-12-29T18:15:34;7.60;99.90
23540;DHT22;11947;50.810;4.394;2022-12-29T18:18:18;7.60;99.90
23540;DHT22;11947;50.810;4.394;2022-12-29T18:20:45;7.70;99.90
23540;DHT22;11947;50.810;4.394;2022-12-29T18:23:26;7.60;99.90
23540;DHT22;11947;50.810;4.394;2022-12-29T18:26:09;7.70;99.90
23540;DHT22;11947;50.810;4.394;2022-12-29T18:28:36;7.70;99.90